createdAt,value
2019-05-12T00:00:19.547Z,3.10
2019-05-12T00:02:48.451Z,2.70
2019-05-12T00:05:38.267Z,2.80
2019-05-12T00:08:08.199Z,2.70
2019-05-12T00:10:38.689Z,2.40
2019-05-12T00:13:08.383Z,2.67
2019-05-12T00:15:38.515Z,2.83
2019-05-12T00:18:09.085Z,3.20
2019-05-12T00:20:38.614Z,2.93
2019-05-12T00:23:22.787Z,2.60
2019-05-12T00:25:38.748Z,3.03
2019-05-12T00:28:07.871Z,3.07
2019-05-12T00:30:38.913Z,2.60
2019-05-12T00:33:09.304Z,2.70
2019-05-12T00:35:38.178Z,2.60
2019-05-12T00:38:08.684Z,2.80
2019-05-12T00:40:38.810Z,2.90
2019-05-12T00:43:08.650Z,2.70
2019-05-12T00:45:38.482Z,2.70
2019-05-12T00:48:08.752Z,2.87
2019-05-12T00:50:38.227Z,2.80
2019-05-12T00:53:08.625Z,2.90
2019-05-12T00:55:38.054Z,3.63
2019-05-12T00:58:08.183Z,2.93
2019-05-12T01:00:39.952Z,2.90
2019-05-12T01:03:08.679Z,2.87
2019-05-12T01:05:38.375Z,3.13
2019-05-12T01:08:09.146Z,2.63
2019-05-12T01:10:38.929Z,3.20
2019-05-12T01:13:08.525Z,2.60
2019-05-12T01:15:37.771Z,2.50
2019-05-12T01:18:08.892Z,3.20
2019-05-12T01:20:38.742Z,3.10
2019-05-12T01:23:08.480Z,3.03
2019-05-12T01:25:36.467Z,2.90
2019-05-12T01:28:04.701Z,2.97
2019-05-12T01:30:32.983Z,3.50
2019-05-12T01:33:01.265Z,3.20
2019-05-12T01:35:29.507Z,2.90
2019-05-12T01:38:01.049Z,3.97
2019-05-12T01:40:28.567Z,2.93
2019-05-12T01:42:58.284Z,3.13
2019-05-12T01:45:28.830Z,3.10
2019-05-12T01:47:59.228Z,3.63
2019-05-12T01:50:28.248Z,3.57
2019-05-12T01:52:58.770Z,3.10
2019-05-12T01:55:28.149Z,3.23
2019-05-12T01:57:57.809Z,3.30
2019-05-12T02:00:28.352Z,3.30
2019-05-12T02:02:58.448Z,3.40
2019-05-12T02:05:28.052Z,3.43
2019-05-12T02:07:58.367Z,3.20
2019-05-12T02:10:28.758Z,3.10
2019-05-12T02:12:59.349Z,3.27
2019-05-12T02:15:27.836Z,3.37
2019-05-12T02:17:58.624Z,2.90
2019-05-12T02:20:28.539Z,3.00
2019-05-12T02:22:58.409Z,3.07
2019-05-12T02:25:28.565Z,3.17
2019-05-12T02:27:58.467Z,3.30
2019-05-12T02:30:29.704Z,3.13
2019-05-12T02:32:59.052Z,3.30
2019-05-12T02:35:26.189Z,3.37
2019-05-12T02:37:55.141Z,3.23
2019-05-12T02:40:25.166Z,3.20
2019-05-12T02:42:54.805Z,3.07
2019-05-12T02:45:25.402Z,3.23
2019-05-12T02:47:54.377Z,3.33
2019-05-12T02:50:30.274Z,3.40
2019-05-12T02:52:58.575Z,3.27
2019-05-12T02:55:26.966Z,3.10
2019-05-12T02:57:55.462Z,3.43
2019-05-12T03:00:24.292Z,3.57
2019-05-12T03:02:54.715Z,3.20
2019-05-12T03:05:24.846Z,2.97
2019-05-12T03:07:55.260Z,3.50
2019-05-12T03:10:25.234Z,3.00
2019-05-12T03:12:54.909Z,3.53
2019-05-12T03:15:25.074Z,3.30
2019-05-12T03:17:54.578Z,3.03
2019-05-12T03:20:24.162Z,2.50
2019-05-12T03:22:55.423Z,3.30
2019-05-12T03:25:29.025Z,3.27
2019-05-12T03:27:54.570Z,3.27
2019-05-12T03:30:28.436Z,3.30
2019-05-12T03:32:57.491Z,3.33
2019-05-12T03:35:32.205Z,2.97
2019-05-12T03:37:54.752Z,3.20
2019-05-12T03:40:24.881Z,3.10
2019-05-12T03:42:54.886Z,3.43
2019-05-12T03:45:24.879Z,3.10
2019-05-12T03:47:54.781Z,3.00
2019-05-12T03:50:24.359Z,3.00
2019-05-12T03:52:52.002Z,3.13
2019-05-12T03:55:34.171Z,3.10
2019-05-12T03:57:50.299Z,3.17
2019-05-12T04:00:19.125Z,2.90
2019-05-12T04:02:47.452Z,3.47
2019-05-12T04:05:16.628Z,3.87
2019-05-12T04:07:45.193Z,3.50
2019-05-12T04:10:15.511Z,3.20
2019-05-12T04:12:44.810Z,2.90
2019-05-12T04:15:15.199Z,2.60
2019-05-12T04:17:45.365Z,2.80
2019-05-12T04:20:15.188Z,2.43
2019-05-12T04:22:44.601Z,3.30
2019-05-12T04:25:14.637Z,3.03
2019-05-12T04:27:45.082Z,2.57
2019-05-12T04:30:14.519Z,2.87
2019-05-12T04:32:45.224Z,2.90
2019-05-12T04:35:14.805Z,2.93
2019-05-12T04:37:44.964Z,3.23
2019-05-12T04:40:14.834Z,3.00
2019-05-12T04:42:45.148Z,2.87
2019-05-12T04:45:15.703Z,3.20
2019-05-12T04:47:44.938Z,2.50
2019-05-12T04:50:15.621Z,2.70
2019-05-12T04:52:44.562Z,2.80
2019-05-12T04:55:15.158Z,3.13
2019-05-12T04:57:45.048Z,2.37
2019-05-12T05:00:15.910Z,2.80
2019-05-12T05:02:45.590Z,2.53
2019-05-12T05:05:14.472Z,3.60
2019-05-12T05:07:44.804Z,2.77
2019-05-12T05:10:14.569Z,3.40
2019-05-12T05:12:45.010Z,2.50
2019-05-12T05:15:14.631Z,2.57
2019-05-12T05:17:44.103Z,2.80
2019-05-12T05:20:13.523Z,2.70
2019-05-12T05:22:44.104Z,2.83
2019-05-12T05:25:14.234Z,2.10
2019-05-12T05:27:43.778Z,2.90
2019-05-12T05:30:13.883Z,2.43
2019-05-12T05:32:44.377Z,2.27
2019-05-12T05:35:13.714Z,2.97
2019-05-12T05:37:44.120Z,2.70
2019-05-12T05:40:14.181Z,2.30
2019-05-12T05:42:43.891Z,2.60
2019-05-12T05:45:19.667Z,2.40
2019-05-12T05:47:44.325Z,2.40
2019-05-12T05:50:13.578Z,1.80
2019-05-12T05:52:43.804Z,2.30
2019-05-12T05:55:19.892Z,2.80
2019-05-12T05:57:44.185Z,2.50
2019-05-12T06:00:17.617Z,2.50
2019-05-12T06:02:44.126Z,2.57
2019-05-12T06:05:14.414Z,2.60
2019-05-12T06:07:44.307Z,2.57
2019-05-12T06:10:14.521Z,2.47
2019-05-12T06:12:48.657Z,2.80
2019-05-12T06:15:13.656Z,2.57
2019-05-12T06:17:43.892Z,2.90
2019-05-12T06:20:13.441Z,2.70
2019-05-12T06:22:43.779Z,2.50
2019-05-12T06:25:15.644Z,2.30
2019-05-12T06:27:44.134Z,2.80
2019-05-12T06:30:14.564Z,2.40
2019-05-12T06:32:50.193Z,2.63
2019-05-12T06:35:11.825Z,2.63
2019-05-12T06:37:40.110Z,2.40
2019-05-12T06:40:08.422Z,2.93
2019-05-12T06:42:36.697Z,3.10
2019-05-12T06:45:05.106Z,2.60
2019-05-12T06:47:34.320Z,2.30
2019-05-12T06:50:03.918Z,2.30
2019-05-12T06:52:33.776Z,2.30
2019-05-12T06:55:04.051Z,2.40
2019-05-12T06:57:34.131Z,2.30
2019-05-12T07:00:04.357Z,2.40
2019-05-12T07:02:37.157Z,2.40
2019-05-12T07:05:04.407Z,2.47
2019-05-12T07:07:33.429Z,2.03
2019-05-12T07:10:11.768Z,2.30
2019-05-12T07:12:43.598Z,2.70
2019-05-12T07:15:03.794Z,2.40
2019-05-12T07:17:43.794Z,2.30
2019-05-12T07:20:07.142Z,2.20
2019-05-12T07:22:43.733Z,2.60
2019-05-12T07:25:08.125Z,2.00
2019-05-12T07:27:39.584Z,2.23
2019-05-12T07:30:06.747Z,2.60
2019-05-12T07:32:34.991Z,1.70
2019-05-12T07:35:04.485Z,1.70
2019-05-12T07:37:34.445Z,1.80
2019-05-12T07:40:04.857Z,2.23
2019-05-12T07:42:39.403Z,1.80
2019-05-12T07:45:04.819Z,1.77
2019-05-12T07:47:33.216Z,2.10
2019-05-12T07:50:04.293Z,1.80
2019-05-12T07:52:33.663Z,1.93
2019-05-12T07:55:01.457Z,2.70
2019-05-12T07:57:29.735Z,2.13
2019-05-12T07:59:57.993Z,2.40
2019-05-12T08:02:31.798Z,2.27
2019-05-12T08:04:56.232Z,1.90
2019-05-12T08:07:25.880Z,2.23
2019-05-12T08:09:54.627Z,1.73
2019-05-12T08:12:23.783Z,1.97
2019-05-12T08:14:54.074Z,2.37
2019-05-12T08:17:24.452Z,2.20
2019-05-12T08:19:53.670Z,2.30
2019-05-12T08:22:27.178Z,2.20
2019-05-12T08:24:53.718Z,2.30
2019-05-12T08:27:23.417Z,2.17
2019-05-12T08:30:00.832Z,2.27
2019-05-12T08:32:23.405Z,2.27
2019-05-12T08:34:53.986Z,2.23
2019-05-12T08:37:21.663Z,2.17
2019-05-12T08:39:53.262Z,1.70
2019-05-12T08:42:19.920Z,1.90
2019-05-12T08:44:48.233Z,2.10
2019-05-12T08:47:16.598Z,1.57
2019-05-12T08:49:53.415Z,1.60
2019-05-12T08:52:14.824Z,1.93
2019-05-12T08:54:45.466Z,1.90
2019-05-12T08:57:14.391Z,2.37
2019-05-12T08:59:44.170Z,2.00
2019-05-12T09:02:13.937Z,2.23
2019-05-12T09:04:51.153Z,2.20
2019-05-12T09:07:13.840Z,2.00
2019-05-12T09:09:43.912Z,1.87
2019-05-12T09:12:13.986Z,1.90
2019-05-12T09:14:46.230Z,1.90
2019-05-12T09:17:13.872Z,1.60
2019-05-12T09:19:43.647Z,2.17
2019-05-12T09:22:17.068Z,1.67
2019-05-12T09:24:43.967Z,1.80
2019-05-12T09:27:13.582Z,2.03
2019-05-12T09:29:43.565Z,1.90
2019-05-12T09:32:14.364Z,2.50
2019-05-12T09:34:44.717Z,3.00
2019-05-12T09:37:14.121Z,2.47
2019-05-12T09:39:43.643Z,2.10
2019-05-12T09:42:14.127Z,2.33
2019-05-12T09:44:43.804Z,2.00
2019-05-12T09:47:21.936Z,1.93
2019-05-12T09:49:41.603Z,2.13
2019-05-12T09:52:13.810Z,1.93
2019-05-12T09:54:41.009Z,1.70
2019-05-12T09:57:09.381Z,1.77
2019-05-12T09:59:37.758Z,1.40
2019-05-12T10:02:10.463Z,2.20
2019-05-12T10:04:36.194Z,1.70
2019-05-12T10:07:04.522Z,1.37
2019-05-12T10:09:33.562Z,1.50
2019-05-12T10:12:03.246Z,1.77
2019-05-12T10:14:31.893Z,1.37
2019-05-12T10:17:00.233Z,1.57
2019-05-12T10:19:28.543Z,1.80
2019-05-12T10:21:59.444Z,1.90
2019-05-12T10:24:26.770Z,1.97
2019-05-12T10:26:55.101Z,1.80
2019-05-12T10:29:24.420Z,2.00
2019-05-12T10:31:53.689Z,1.87
2019-05-12T10:34:24.070Z,2.10
2019-05-12T10:36:53.818Z,1.73
2019-05-12T10:39:24.477Z,1.83
2019-05-12T10:41:54.543Z,1.73
2019-05-12T10:44:22.276Z,1.60
2019-05-12T10:46:53.736Z,1.83
2019-05-12T10:49:23.354Z,1.87
2019-05-12T10:51:53.800Z,2.00
2019-05-12T10:54:23.967Z,1.97
2019-05-12T10:56:54.244Z,1.50
2019-05-12T10:59:30.211Z,1.50
2019-05-12T11:01:51.289Z,1.97
2019-05-12T11:04:25.093Z,1.90
2019-05-12T11:06:49.477Z,1.57
2019-05-12T11:09:21.371Z,1.50
2019-05-12T11:11:47.644Z,1.53
2019-05-12T11:14:20.323Z,1.70
2019-05-12T11:16:45.953Z,1.63
2019-05-12T11:19:14.273Z,1.40
2019-05-12T11:21:44.314Z,1.60
2019-05-12T11:24:13.810Z,1.73
2019-05-12T11:26:43.282Z,1.57
2019-05-12T11:29:14.006Z,1.60
2019-05-12T11:31:43.943Z,1.40
2019-05-12T11:34:11.506Z,2.20
2019-05-12T11:36:39.857Z,1.70
2019-05-12T11:39:08.198Z,1.83
2019-05-12T11:41:36.517Z,1.40
2019-05-12T11:44:04.813Z,1.40
2019-05-12T11:46:36.230Z,1.67
2019-05-12T11:49:04.426Z,1.60
2019-05-12T11:51:34.088Z,1.60
2019-05-12T11:54:03.464Z,1.50
2019-05-12T11:56:33.628Z,1.53
2019-05-12T11:59:02.039Z,1.63
2019-05-12T12:01:30.451Z,1.50
2019-05-12T12:03:58.781Z,1.40
2019-05-12T12:06:27.159Z,1.70
2019-05-12T12:08:55.492Z,1.63
2019-05-12T12:11:27.695Z,1.70
2019-05-12T12:13:53.719Z,1.90
2019-05-12T12:16:23.739Z,2.20
2019-05-12T12:18:59.510Z,1.90
2019-05-12T12:21:23.730Z,1.80
2019-05-12T12:23:53.496Z,1.60
2019-05-12T12:26:30.009Z,1.57
2019-05-12T12:28:55.908Z,1.90
2019-05-12T12:31:24.169Z,1.73
2019-05-12T12:33:53.585Z,1.70
2019-05-12T12:36:23.641Z,1.70
2019-05-12T12:38:53.542Z,1.50
2019-05-12T12:41:23.712Z,1.90
2019-05-12T12:43:53.989Z,1.80
2019-05-12T12:46:24.370Z,1.90
2019-05-12T12:48:54.252Z,1.70
2019-05-12T12:51:23.639Z,1.90
2019-05-12T12:53:53.930Z,1.77
2019-05-12T12:56:27.693Z,1.70
2019-05-12T12:58:51.926Z,1.70
2019-05-12T13:01:26.848Z,1.60
2019-05-12T13:03:50.223Z,1.60
2019-05-12T13:06:18.491Z,1.85
2019-05-12T13:08:46.805Z,1.45
2019-05-12T13:11:15.072Z,1.90
2019-05-12T13:13:43.361Z,1.40
2019-05-12T13:16:13.241Z,1.50
2019-05-12T13:18:43.461Z,1.40
2019-05-12T13:21:13.683Z,1.40
2019-05-12T13:23:41.503Z,1.30
2019-05-12T13:26:09.740Z,1.70
2019-05-12T13:31:13.076Z,1.70
2019-05-12T13:33:35.371Z,1.70
2019-05-12T13:36:04.322Z,1.50
2019-05-12T13:58:18.529Z,1.40
2019-05-12T14:01:00.588Z,1.65
2019-05-12T14:05:50.398Z,1.60
2019-05-12T14:08:14.721Z,1.53
2019-05-12T14:10:46.526Z,1.47
2019-05-12T14:13:14.049Z,1.43
2019-05-12T14:15:44.268Z,1.63
2019-05-12T14:18:18.481Z,1.50
2019-05-12T14:20:44.918Z,1.60
2019-05-12T14:23:14.579Z,1.60
2019-05-12T14:25:43.712Z,1.60
2019-05-12T14:28:15.976Z,1.60
2019-05-12T14:30:47.416Z,1.63
2019-05-12T14:33:12.170Z,1.57
2019-05-12T14:35:43.261Z,1.50
2019-05-12T14:38:10.482Z,1.50
2019-05-12T14:40:38.845Z,1.70
2019-05-12T14:43:10.275Z,1.70
2019-05-12T14:45:37.067Z,1.53
2019-05-12T14:48:09.111Z,1.30
2019-05-12T14:50:35.351Z,1.40
2019-05-12T14:53:03.669Z,1.53
2019-05-12T14:55:33.768Z,1.43
2019-05-12T14:58:03.538Z,1.40
2019-05-12T15:00:34.212Z,1.60
2019-05-12T15:03:05.071Z,1.60
2019-05-12T15:05:32.035Z,1.60
2019-05-12T15:08:00.647Z,1.37
2019-05-12T15:10:28.893Z,1.33
2019-05-12T15:12:57.217Z,1.40
2019-05-12T15:15:25.521Z,1.47
2019-05-12T15:17:56.619Z,1.57
2019-05-12T15:20:24.125Z,1.53
2019-05-12T15:22:54.967Z,1.50
2019-05-12T15:25:22.463Z,1.40
2019-05-12T15:27:50.828Z,1.30
2019-05-12T15:30:23.613Z,1.20
2019-05-12T15:32:49.133Z,1.67
2019-05-12T15:35:18.499Z,1.57
2019-05-12T15:37:46.965Z,1.40
2019-05-12T15:40:15.295Z,1.57
2019-05-12T15:42:45.235Z,1.40
2019-05-12T15:45:16.416Z,1.40
2019-05-12T15:47:44.628Z,1.27
2019-05-12T15:50:14.754Z,1.60
2019-05-12T15:52:45.538Z,1.60
2019-05-12T15:55:13.741Z,1.50
2019-05-12T15:57:43.982Z,1.30
2019-05-12T16:00:16.766Z,1.40
2019-05-12T16:02:44.229Z,1.50
2019-05-12T16:05:14.619Z,1.50
2019-05-12T16:07:44.175Z,1.73
2019-05-12T16:10:14.481Z,1.53
2019-05-12T16:12:43.645Z,1.63
2019-05-12T16:15:17.060Z,1.40
2019-05-12T16:17:43.973Z,1.43
2019-05-12T16:20:14.247Z,1.40
2019-05-12T16:22:45.238Z,1.60
2019-05-12T16:25:15.119Z,1.40
2019-05-12T16:27:44.503Z,1.57
2019-05-12T16:30:13.796Z,2.10
2019-05-12T16:32:47.018Z,1.50
2019-05-12T16:35:14.518Z,1.40
2019-05-12T16:37:44.319Z,1.67
2019-05-12T16:40:13.714Z,1.47
2019-05-12T16:42:50.330Z,1.63
2019-05-12T16:45:14.290Z,1.57
2019-05-12T16:47:44.419Z,1.77
2019-05-12T16:50:23.686Z,1.70
2019-05-12T16:52:45.022Z,1.80
2019-05-12T16:55:12.149Z,1.90
2019-05-12T16:57:50.042Z,1.87
2019-05-12T17:00:10.338Z,1.53
2019-05-12T17:02:41.861Z,1.40
2019-05-12T17:05:15.730Z,1.70
2019-05-12T17:07:38.530Z,1.60
2019-05-12T17:10:11.804Z,1.70
2019-05-12T17:12:37.316Z,1.67
2019-05-12T17:15:05.680Z,1.70
2019-05-12T17:17:33.954Z,1.73
2019-05-12T17:20:04.286Z,1.50
2019-05-12T17:22:32.285Z,1.50
2019-05-12T17:25:00.601Z,1.50
2019-05-12T17:27:28.908Z,1.60
2019-05-12T17:29:57.158Z,1.60
2019-05-12T17:32:25.397Z,1.50
2019-05-12T17:34:53.739Z,1.67
2019-05-12T17:37:23.847Z,1.70
2019-05-12T17:39:52.038Z,1.63
2019-05-12T17:42:24.555Z,1.67
2019-05-12T17:44:50.303Z,1.63
2019-05-12T17:47:21.539Z,1.70
2019-05-12T17:49:48.627Z,2.00
2019-05-12T17:52:18.578Z,1.70
2019-05-12T17:54:46.805Z,1.40
2019-05-12T17:57:19.734Z,1.80
2019-05-12T17:59:45.119Z,1.63
2019-05-12T18:02:16.743Z,1.93
2019-05-12T18:04:43.787Z,1.80
2019-05-12T18:07:14.467Z,1.80
2019-05-12T18:09:44.008Z,1.87
2019-05-12T18:12:13.879Z,2.20
2019-05-12T18:14:46.763Z,1.90
2019-05-12T18:17:13.936Z,1.77
2019-05-12T18:19:44.271Z,1.77
2019-05-12T18:22:14.018Z,1.73
2019-05-12T18:24:49.362Z,1.80
2019-05-12T18:27:13.615Z,1.50
2019-05-12T18:29:43.981Z,1.53
2019-05-12T18:32:13.622Z,1.80
2019-05-12T18:34:41.582Z,1.60
2019-05-12T18:37:09.846Z,1.70
2019-05-12T18:39:38.170Z,1.60
2019-05-12T18:42:06.482Z,1.63
2019-05-12T18:44:35.019Z,1.53
2019-05-12T18:47:04.791Z,1.43
2019-05-12T18:49:34.232Z,1.67
2019-05-12T18:52:03.925Z,1.53
2019-05-12T18:54:34.434Z,1.37
2019-05-12T18:57:06.425Z,1.43
2019-05-12T18:59:34.005Z,1.17
2019-05-12T19:02:03.647Z,1.40
2019-05-12T19:04:34.021Z,1.70
2019-05-12T19:07:03.784Z,1.50
2019-05-12T19:09:33.513Z,1.53
2019-05-12T19:12:01.912Z,1.27
2019-05-12T19:14:37.060Z,1.60
2019-05-12T19:17:03.530Z,2.20
2019-05-12T19:19:32.002Z,1.60
2019-05-12T19:22:06.787Z,1.30
2019-05-12T19:24:30.251Z,1.43
2019-05-12T19:26:58.684Z,1.70
2019-05-12T19:29:29.782Z,1.50
2019-05-12T19:31:58.102Z,1.60
2019-05-12T19:34:26.610Z,1.60
2019-05-12T19:36:54.986Z,1.77
2019-05-12T19:39:25.330Z,1.60
2019-05-12T19:41:55.577Z,1.17
2019-05-12T19:44:26.355Z,1.50
2019-05-12T19:46:54.149Z,1.60
2019-05-12T19:49:26.170Z,1.37
2019-05-12T19:51:54.347Z,1.50
2019-05-12T19:54:25.566Z,1.33
2019-05-12T19:56:53.770Z,1.70
2019-05-12T19:59:23.662Z,1.53
2019-05-12T20:01:53.605Z,1.53
2019-05-12T20:04:30.894Z,1.67
2019-05-12T20:06:54.290Z,1.93
2019-05-12T20:09:24.256Z,1.93
2019-05-12T20:11:53.820Z,1.70
2019-05-12T20:14:24.090Z,1.80
2019-05-12T20:16:55.040Z,1.40
2019-05-12T20:19:25.533Z,1.47
2019-05-12T20:21:54.301Z,1.30
2019-05-12T20:24:23.691Z,1.90
2019-05-12T20:26:53.762Z,1.40
2019-05-12T20:29:24.500Z,1.40
2019-05-12T20:31:53.771Z,1.77
2019-05-12T20:34:24.478Z,1.73
2019-05-12T20:36:53.706Z,1.43
2019-05-12T20:39:24.490Z,1.60
2019-05-12T20:41:54.760Z,1.70
2019-05-12T20:44:23.842Z,1.63
2019-05-12T20:46:56.191Z,1.73
2019-05-12T20:49:23.975Z,1.80
2019-05-12T20:51:54.987Z,1.60
2019-05-12T20:54:23.797Z,2.07
2019-05-12T20:56:53.036Z,1.80
2019-05-12T20:59:27.050Z,1.60
2019-05-12T21:01:51.647Z,1.60
2019-05-12T21:04:22.136Z,1.77
2019-05-12T21:06:50.094Z,1.80
2019-05-12T21:09:18.385Z,1.90
2019-05-12T21:11:46.688Z,1.50
2019-05-12T21:14:14.938Z,1.90
2019-05-12T21:16:47.940Z,1.87
2019-05-12T21:19:16.314Z,1.70
2019-05-12T21:21:44.662Z,2.10
2019-05-12T21:24:13.956Z,1.60
2019-05-12T21:26:44.066Z,1.80
2019-05-12T21:29:13.782Z,1.93
2019-05-12T21:31:44.405Z,2.13
2019-05-12T21:34:13.089Z,1.90
2019-05-12T21:36:44.392Z,2.17
2019-05-12T21:39:13.989Z,1.90
2019-05-12T21:41:47.401Z,1.80
2019-05-12T21:44:14.167Z,1.83
2019-05-12T21:46:46.903Z,2.00
2019-05-12T21:49:12.914Z,1.93
2019-05-12T21:51:44.461Z,1.77
2019-05-12T21:54:13.552Z,1.93
2019-05-12T21:56:45.020Z,2.00
2019-05-12T21:59:13.387Z,2.00
2019-05-12T22:01:43.535Z,2.10
2019-05-12T22:04:14.169Z,2.07
2019-05-12T22:06:43.754Z,2.40
2019-05-12T22:09:14.708Z,2.00
2019-05-12T22:11:50.470Z,1.90
2019-05-12T22:14:13.675Z,1.60
2019-05-12T22:16:46.773Z,2.10
2019-05-12T22:19:13.647Z,1.80
2019-05-12T22:21:49.314Z,2.00
2019-05-12T22:24:14.415Z,2.20
2019-05-12T22:26:45.870Z,2.20
2019-05-12T22:29:13.512Z,1.73
2019-05-12T22:31:44.958Z,2.40
2019-05-12T22:34:11.904Z,2.47
2019-05-12T22:36:45.511Z,2.20
2019-05-12T22:39:10.060Z,2.17
2019-05-12T22:41:41.505Z,1.90
2019-05-12T22:44:08.333Z,2.23
2019-05-12T22:46:36.579Z,2.40
2019-05-12T22:49:04.930Z,2.10
2019-05-12T22:51:33.272Z,2.30
2019-05-12T22:54:06.802Z,2.00
2019-05-12T22:56:31.518Z,1.90
2019-05-12T22:59:00.393Z,2.43
2019-05-12T23:01:34.575Z,2.10
2019-05-12T23:03:59.770Z,2.27
2019-05-12T23:06:33.525Z,2.80
2019-05-12T23:08:58.046Z,2.57
2019-05-12T23:11:31.859Z,2.27
2019-05-12T23:13:56.324Z,2.30
2019-05-12T23:16:29.102Z,2.10
2019-05-12T23:18:54.624Z,2.80
2019-05-12T23:21:24.246Z,2.40
2019-05-12T23:23:57.508Z,2.07
2019-05-12T23:26:24.539Z,2.30
2019-05-12T23:28:53.500Z,2.00
2019-05-12T23:31:25.865Z,2.00
2019-05-12T23:33:54.202Z,2.53
2019-05-12T23:36:35.232Z,2.10
2019-05-12T23:39:00.166Z,2.57
2019-05-12T23:41:23.668Z,2.03
2019-05-12T23:43:53.627Z,2.20
2019-05-12T23:46:23.480Z,1.93
2019-05-12T23:48:51.639Z,2.10
2019-05-12T23:51:19.949Z,2.10
2019-05-12T23:53:48.306Z,2.27
2019-05-12T23:56:16.526Z,2.20
2019-05-12T23:58:44.931Z,2.00
